sensor_id;sensor_type;location;lat;lon;timestamp;P1;durP1;ratioP1;P2;durP2;ratioP2
16314;SDS011;8266;52.150;4.768;2023-02-28T00:00:09;1.40;;;1.05;;
16314;SDS011;8266;52.150;4.768;2023-02-28T00:02:37;4.18;;;1.30;;
16314;SDS011;8266;52.150;4.768;2023-02-28T00:05:06;2.42;;;1.10;;
16314;SDS011;8266;52.150;4.768;2023-02-28T00:07:34;1.52;;;1.20;;
16314;SDS011;8266;52.150;4.768;2023-02-28T00:10:02;1.38;;;1.23;;
16314;SDS011;8266;52.150;4.768;2023-02-28T00:12:31;2.25;;;1.00;;
16314;SDS011;8266;52.150;4.768;2023-02-28T00:14:58;1.38;;;1.00;;
16314;SDS011;8266;52.150;4.768;2023-02-28T00:17:25;1.77;;;1.23;;
16314;SDS011;8266;52.150;4.768;2023-02-28T00:19:52;1.48;;;1.00;;
16314;SDS011;8266;52.150;4.768;2023-02-28T00:22:19;2.35;;;1.27;;
16314;SDS011;8266;52.150;4.768;2023-02-28T00:24:47;3.75;;;1.45;;
16314;SDS011;8266;52.150;4.768;2023-02-28T00:27:14;1.52;;;1.20;;
16314;SDS011;8266;52.150;4.768;2023-02-28T00:29:42;2.08;;;1.23;;
16314;SDS011;8266;52.150;4.768;2023-02-28T00:32:09;1.58;;;1.08;;
16314;SDS011;8266;52.150;4.768;2023-02-28T00:34:37;1.98;;;1.15;;
16314;SDS011;8266;52.150;4.768;2023-02-28T00:37:04;1.92;;;1.30;;
16314;SDS011;8266;52.150;4.768;2023-02-28T00:39:33;2.72;;;1.33;;
16314;SDS011;8266;52.150;4.768;2023-02-28T00:42:01;3.05;;;1.58;;
16314;SDS011;8266;52.150;4.768;2023-02-28T00:44:28;2.25;;;1.35;;
16314;SDS011;8266;52.150;4.768;2023-02-28T00:46:57;2.25;;;1.20;;
16314;SDS011;8266;52.150;4.768;2023-02-28T00:49:26;1.48;;;1.25;;
16314;SDS011;8266;52.150;4.768;2023-02-28T00:51:53;4.00;;;1.33;;
16314;SDS011;8266;52.150;4.768;2023-02-28T00:54:20;2.78;;;1.40;;
16314;SDS011;8266;52.150;4.768;2023-02-28T00:56:48;3.78;;;1.63;;
16314;SDS011;8266;52.150;4.768;2023-02-28T00:59:16;2.65;;;1.27;;
16314;SDS011;8266;52.150;4.768;2023-02-28T01:01:45;2.80;;;1.60;;
16314;SDS011;8266;52.150;4.768;2023-02-28T01:04:14;2.92;;;1.52;;
16314;SDS011;8266;52.150;4.768;2023-02-28T01:06:41;4.18;;;1.85;;
16314;SDS011;8266;52.150;4.768;2023-02-28T01:09:08;3.83;;;1.55;;
16314;SDS011;8266;52.150;4.768;2023-02-28T01:11:36;1.75;;;1.20;;
16314;SDS011;8266;52.150;4.768;2023-02-28T01:14:04;1.75;;;1.48;;
16314;SDS011;8266;52.150;4.768;2023-02-28T01:16:31;2.03;;;1.10;;
16314;SDS011;8266;52.150;4.768;2023-02-28T01:18:58;4.78;;;1.60;;
16314;SDS011;8266;52.150;4.768;2023-02-28T01:21:27;2.97;;;1.65;;
16314;SDS011;8266;52.150;4.768;2023-02-28T01:23:56;2.42;;;1.30;;
16314;SDS011;8266;52.150;4.768;2023-02-28T01:26:23;3.40;;;1.50;;
16314;SDS011;8266;52.150;4.768;2023-02-28T01:28:51;2.30;;;1.42;;
16314;SDS011;8266;52.150;4.768;2023-02-28T01:31:19;2.90;;;1.48;;
16314;SDS011;8266;52.150;4.768;2023-02-28T01:33:47;3.15;;;1.50;;
16314;SDS011;8266;52.150;4.768;2023-02-28T01:36:15;1.48;;;1.15;;
16314;SDS011;8266;52.150;4.768;2023-02-28T01:38:45;2.83;;;1.58;;
16314;SDS011;8266;52.150;4.768;2023-02-28T01:41:14;2.25;;;1.40;;
16314;SDS011;8266;52.150;4.768;2023-02-28T01:43:54;2.50;;;1.27;;
16314;SDS011;8266;52.150;4.768;2023-02-28T01:46:28;3.67;;;1.30;;
16314;SDS011;8266;52.150;4.768;2023-02-28T01:48:57;1.50;;;1.40;;
16314;SDS011;8266;52.150;4.768;2023-02-28T01:51:30;1.98;;;1.42;;
16314;SDS011;8266;52.150;4.768;2023-02-28T01:54:03;3.22;;;1.60;;
16314;SDS011;8266;52.150;4.768;2023-02-28T01:56:38;2.05;;;1.30;;
16314;SDS011;8266;52.150;4.768;2023-02-28T01:59:10;4.78;;;1.58;;
16314;SDS011;8266;52.150;4.768;2023-02-28T02:01:41;4.95;;;1.70;;
16314;SDS011;8266;52.150;4.768;2023-02-28T02:04:08;2.70;;;1.23;;
16314;SDS011;8266;52.150;4.768;2023-02-28T02:06:37;4.38;;;1.40;;
16314;SDS011;8266;52.150;4.768;2023-02-28T02:09:08;2.70;;;1.27;;
16314;SDS011;8266;52.150;4.768;2023-02-28T02:11:35;2.20;;;1.70;;
16314;SDS011;8266;52.150;4.768;2023-02-28T02:14:10;2.25;;;1.50;;
16314;SDS011;8266;52.150;4.768;2023-02-28T02:16:49;3.65;;;1.65;;
16314;SDS011;8266;52.150;4.768;2023-02-28T02:19:34;2.75;;;1.40;;
16314;SDS011;8266;52.150;4.768;2023-02-28T02:22:21;2.67;;;1.45;;
16314;SDS011;8266;52.150;4.768;2023-02-28T02:25:10;3.92;;;1.65;;
16314;SDS011;8266;52.150;4.768;2023-02-28T02:30:52;3.15;;;1.83;;
16314;SDS011;8266;52.150;4.768;2023-02-28T02:33:37;3.35;;;1.60;;
16314;SDS011;8266;52.150;4.768;2023-02-28T02:36:23;1.60;;;1.50;;
16314;SDS011;8266;52.150;4.768;2023-02-28T02:38:55;3.17;;;1.60;;
16314;SDS011;8266;52.150;4.768;2023-02-28T02:41:30;3.42;;;1.85;;
16314;SDS011;8266;52.150;4.768;2023-02-28T02:44:02;2.15;;;1.67;;
16314;SDS011;8266;52.150;4.768;2023-02-28T02:46:33;3.17;;;1.92;;
16314;SDS011;8266;52.150;4.768;2023-02-28T02:49:03;3.15;;;1.70;;
16314;SDS011;8266;52.150;4.768;2023-02-28T02:51:35;2.28;;;1.50;;
16314;SDS011;8266;52.150;4.768;2023-02-28T02:54:05;3.33;;;1.73;;
16314;SDS011;8266;52.150;4.768;2023-02-28T02:56:35;3.97;;;1.73;;
16314;SDS011;8266;52.150;4.768;2023-02-28T02:59:05;3.53;;;1.83;;
16314;SDS011;8266;52.150;4.768;2023-02-28T03:01:36;2.92;;;1.70;;
16314;SDS011;8266;52.150;4.768;2023-02-28T03:04:07;3.00;;;1.70;;
16314;SDS011;8266;52.150;4.768;2023-02-28T03:06:37;3.95;;;1.77;;
16314;SDS011;8266;52.150;4.768;2023-02-28T03:09:04;3.30;;;1.60;;
16314;SDS011;8266;52.150;4.768;2023-02-28T03:11:31;2.33;;;1.75;;
16314;SDS011;8266;52.150;4.768;2023-02-28T03:14:04;1.40;;;1.30;;
16314;SDS011;8266;52.150;4.768;2023-02-28T03:16:48;2.00;;;1.80;;
16314;SDS011;8266;52.150;4.768;2023-02-28T03:19:32;2.50;;;1.80;;
16314;SDS011;8266;52.150;4.768;2023-02-28T03:22:10;3.15;;;1.77;;
16314;SDS011;8266;52.150;4.768;2023-02-28T03:24:49;2.65;;;2.00;;
16314;SDS011;8266;52.150;4.768;2023-02-28T03:27:23;3.20;;;1.83;;
16314;SDS011;8266;52.150;4.768;2023-02-28T03:29:56;1.85;;;1.63;;
16314;SDS011;8266;52.150;4.768;2023-02-28T03:32:27;3.38;;;1.90;;
16314;SDS011;8266;52.150;4.768;2023-02-28T03:34:58;2.95;;;1.92;;
16314;SDS011;8266;52.150;4.768;2023-02-28T03:37:32;3.25;;;1.80;;
16314;SDS011;8266;52.150;4.768;2023-02-28T03:40:03;3.55;;;1.98;;
16314;SDS011;8266;52.150;4.768;2023-02-28T03:42:38;3.40;;;2.10;;
16314;SDS011;8266;52.150;4.768;2023-02-28T03:45:09;3.50;;;2.22;;
16314;SDS011;8266;52.150;4.768;2023-02-28T03:47:40;2.53;;;2.25;;
16314;SDS011;8266;52.150;4.768;2023-02-28T03:50:11;2.25;;;2.00;;
16314;SDS011;8266;52.150;4.768;2023-02-28T03:52:44;3.47;;;2.40;;
16314;SDS011;8266;52.150;4.768;2023-02-28T03:55:15;3.75;;;2.20;;
16314;SDS011;8266;52.150;4.768;2023-02-28T03:57:47;3.15;;;2.22;;
16314;SDS011;8266;52.150;4.768;2023-02-28T04:00:25;3.88;;;2.20;;
16314;SDS011;8266;52.150;4.768;2023-02-28T04:02:56;2.63;;;2.05;;
16314;SDS011;8266;52.150;4.768;2023-02-28T04:05:23;2.40;;;2.20;;
16314;SDS011;8266;52.150;4.768;2023-02-28T04:07:52;4.55;;;2.47;;
16314;SDS011;8266;52.150;4.768;2023-02-28T04:10:20;3.10;;;2.28;;
16314;SDS011;8266;52.150;4.768;2023-02-28T04:12:48;3.30;;;2.15;;
16314;SDS011;8266;52.150;4.768;2023-02-28T04:15:15;2.78;;;1.88;;
16314;SDS011;8266;52.150;4.768;2023-02-28T04:17:42;3.03;;;1.80;;
16314;SDS011;8266;52.150;4.768;2023-02-28T04:20:09;3.25;;;2.20;;
16314;SDS011;8266;52.150;4.768;2023-02-28T04:22:37;3.58;;;2.30;;
16314;SDS011;8266;52.150;4.768;2023-02-28T04:25:06;3.15;;;2.42;;
16314;SDS011;8266;52.150;4.768;2023-02-28T04:27:33;5.63;;;2.30;;
16314;SDS011;8266;52.150;4.768;2023-02-28T04:30:00;2.92;;;2.15;;
16314;SDS011;8266;52.150;4.768;2023-02-28T04:32:27;2.53;;;1.85;;
16314;SDS011;8266;52.150;4.768;2023-02-28T04:34:54;3.30;;;2.22;;
16314;SDS011;8266;52.150;4.768;2023-02-28T04:37:21;3.30;;;2.25;;
16314;SDS011;8266;52.150;4.768;2023-02-28T04:39:52;4.57;;;2.60;;
16314;SDS011;8266;52.150;4.768;2023-02-28T04:42:21;4.03;;;2.50;;
16314;SDS011;8266;52.150;4.768;2023-02-28T04:44:48;4.57;;;3.03;;
16314;SDS011;8266;52.150;4.768;2023-02-28T04:47:15;4.85;;;2.47;;
16314;SDS011;8266;52.150;4.768;2023-02-28T04:49:43;3.17;;;2.88;;
16314;SDS011;8266;52.150;4.768;2023-02-28T04:52:10;3.58;;;2.60;;
16314;SDS011;8266;52.150;4.768;2023-02-28T04:54:38;2.80;;;2.55;;
16314;SDS011;8266;52.150;4.768;2023-02-28T04:57:05;4.13;;;2.97;;
16314;SDS011;8266;52.150;4.768;2023-02-28T04:59:33;3.88;;;3.05;;
16314;SDS011;8266;52.150;4.768;2023-02-28T05:02:00;6.25;;;3.28;;
16314;SDS011;8266;52.150;4.768;2023-02-28T05:04:31;5.57;;;3.08;;
16314;SDS011;8266;52.150;4.768;2023-02-28T05:06:59;6.18;;;3.13;;
16314;SDS011;8266;52.150;4.768;2023-02-28T05:09:26;3.72;;;2.83;;
16314;SDS011;8266;52.150;4.768;2023-02-28T05:11:54;3.75;;;3.13;;
16314;SDS011;8266;52.150;4.768;2023-02-28T05:14:22;4.38;;;3.00;;
16314;SDS011;8266;52.150;4.768;2023-02-28T05:16:50;4.28;;;3.47;;
16314;SDS011;8266;52.150;4.768;2023-02-28T05:19:17;4.55;;;3.47;;
16314;SDS011;8266;52.150;4.768;2023-02-28T05:21:49;5.30;;;3.63;;
16314;SDS011;8266;52.150;4.768;2023-02-28T05:24:17;5.57;;;3.60;;
16314;SDS011;8266;52.150;4.768;2023-02-28T05:26:48;4.70;;;4.15;;
16314;SDS011;8266;52.150;4.768;2023-02-28T05:29:17;3.70;;;3.20;;
16314;SDS011;8266;52.150;4.768;2023-02-28T05:31:44;4.72;;;3.40;;
16314;SDS011;8266;52.150;4.768;2023-02-28T05:34:13;5.35;;;3.60;;
16314;SDS011;8266;52.150;4.768;2023-02-28T05:36:41;4.82;;;3.80;;
16314;SDS011;8266;52.150;4.768;2023-02-28T05:39:08;5.10;;;3.70;;
16314;SDS011;8266;52.150;4.768;2023-02-28T05:41:38;3.67;;;3.10;;
16314;SDS011;8266;52.150;4.768;2023-02-28T05:44:05;3.70;;;3.28;;
16314;SDS011;8266;52.150;4.768;2023-02-28T05:46:33;4.68;;;3.90;;
16314;SDS011;8266;52.150;4.768;2023-02-28T05:49:00;5.95;;;3.60;;
16314;SDS011;8266;52.150;4.768;2023-02-28T05:51:29;4.03;;;3.63;;
16314;SDS011;8266;52.150;4.768;2023-02-28T05:53:58;5.20;;;3.97;;
16314;SDS011;8266;52.150;4.768;2023-02-28T05:56:26;5.65;;;4.68;;
16314;SDS011;8266;52.150;4.768;2023-02-28T05:58:53;4.20;;;3.80;;
16314;SDS011;8266;52.150;4.768;2023-02-28T06:01:24;4.70;;;4.25;;
16314;SDS011;8266;52.150;4.768;2023-02-28T06:03:57;5.28;;;4.22;;
16314;SDS011;8266;52.150;4.768;2023-02-28T06:06:25;5.03;;;4.15;;
16314;SDS011;8266;52.150;4.768;2023-02-28T06:08:54;4.93;;;4.47;;
16314;SDS011;8266;52.150;4.768;2023-02-28T06:11:21;5.88;;;4.40;;
16314;SDS011;8266;52.150;4.768;2023-02-28T06:13:52;5.82;;;4.72;;
16314;SDS011;8266;52.150;4.768;2023-02-28T06:16:20;5.35;;;4.35;;
16314;SDS011;8266;52.150;4.768;2023-02-28T06:18:48;8.38;;;4.22;;
16314;SDS011;8266;52.150;4.768;2023-02-28T06:21:15;5.03;;;3.75;;
16314;SDS011;8266;52.150;4.768;2023-02-28T06:23:42;5.10;;;3.67;;
16314;SDS011;8266;52.150;4.768;2023-02-28T06:26:10;6.63;;;3.90;;
16314;SDS011;8266;52.150;4.768;2023-02-28T06:28:37;4.60;;;3.80;;
16314;SDS011;8266;52.150;4.768;2023-02-28T06:31:07;5.53;;;3.50;;
16314;SDS011;8266;52.150;4.768;2023-02-28T06:33:35;4.95;;;3.60;;
16314;SDS011;8266;52.150;4.768;2023-02-28T06:36:03;4.00;;;3.60;;
16314;SDS011;8266;52.150;4.768;2023-02-28T06:38:31;3.78;;;3.17;;
16314;SDS011;8266;52.150;4.768;2023-02-28T06:40:59;3.25;;;2.90;;
16314;SDS011;8266;52.150;4.768;2023-02-28T06:43:29;4.82;;;3.08;;
16314;SDS011;8266;52.150;4.768;2023-02-28T06:45:58;4.38;;;3.10;;
16314;SDS011;8266;52.150;4.768;2023-02-28T06:48:26;3.40;;;2.67;;
16314;SDS011;8266;52.150;4.768;2023-02-28T06:51:00;3.92;;;2.95;;
16314;SDS011;8266;52.150;4.768;2023-02-28T06:53:28;4.25;;;3.10;;
16314;SDS011;8266;52.150;4.768;2023-02-28T06:55:55;6.25;;;2.55;;
16314;SDS011;8266;52.150;4.768;2023-02-28T06:58:22;4.32;;;2.78;;
16314;SDS011;8266;52.150;4.768;2023-02-28T07:00:51;4.32;;;2.80;;
16314;SDS011;8266;52.150;4.768;2023-02-28T07:03:19;3.20;;;2.85;;
16314;SDS011;8266;52.150;4.768;2023-02-28T07:05:46;2.80;;;2.60;;
16314;SDS011;8266;52.150;4.768;2023-02-28T07:08:13;2.95;;;2.63;;
16314;SDS011;8266;52.150;4.768;2023-02-28T07:10:40;3.25;;;2.90;;
16314;SDS011;8266;52.150;4.768;2023-02-28T07:13:08;4.30;;;3.55;;
16314;SDS011;8266;52.150;4.768;2023-02-28T07:15:35;3.20;;;2.90;;
16314;SDS011;8266;52.150;4.768;2023-02-28T07:18:04;4.20;;;2.83;;
16314;SDS011;8266;52.150;4.768;2023-02-28T07:20:31;3.08;;;2.78;;
16314;SDS011;8266;52.150;4.768;2023-02-28T07:22:58;4.53;;;3.65;;
16314;SDS011;8266;52.150;4.768;2023-02-28T07:25:26;3.25;;;2.95;;
16314;SDS011;8266;52.150;4.768;2023-02-28T07:27:56;3.10;;;2.80;;
16314;SDS011;8266;52.150;4.768;2023-02-28T07:30:25;3.65;;;2.85;;
16314;SDS011;8266;52.150;4.768;2023-02-28T07:32:52;5.03;;;3.25;;
16314;SDS011;8266;52.150;4.768;2023-02-28T07:35:22;3.15;;;2.90;;
16314;SDS011;8266;52.150;4.768;2023-02-28T07:37:49;3.20;;;2.90;;
16314;SDS011;8266;52.150;4.768;2023-02-28T07:40:16;4.28;;;3.20;;
16314;SDS011;8266;52.150;4.768;2023-02-28T07:42:44;4.07;;;3.22;;
16314;SDS011;8266;52.150;4.768;2023-02-28T07:45:11;2.65;;;2.45;;
16314;SDS011;8266;52.150;4.768;2023-02-28T07:47:38;2.90;;;2.63;;
16314;SDS011;8266;52.150;4.768;2023-02-28T07:50:05;4.10;;;2.88;;
16314;SDS011;8266;52.150;4.768;2023-02-28T07:52:34;2.90;;;2.63;;
16314;SDS011;8266;52.150;4.768;2023-02-28T07:55:08;2.65;;;2.45;;
16314;SDS011;8266;52.150;4.768;2023-02-28T07:57:36;2.80;;;2.60;;
16314;SDS011;8266;52.150;4.768;2023-02-28T08:00:03;3.30;;;3.00;;
16314;SDS011;8266;52.150;4.768;2023-02-28T08:02:31;2.85;;;2.63;;
16314;SDS011;8266;52.150;4.768;2023-02-28T08:04:59;3.05;;;2.75;;
16314;SDS011;8266;52.150;4.768;2023-02-28T08:07:27;3.65;;;2.80;;
16314;SDS011;8266;52.150;4.768;2023-02-28T08:09:55;3.10;;;2.80;;
16314;SDS011;8266;52.150;4.768;2023-02-28T08:12:22;3.20;;;2.90;;
16314;SDS011;8266;52.150;4.768;2023-02-28T08:14:49;3.63;;;3.00;;
16314;SDS011;8266;52.150;4.768;2023-02-28T08:17:16;3.95;;;3.35;;
16314;SDS011;8266;52.150;4.768;2023-02-28T08:19:44;4.53;;;4.07;;
16314;SDS011;8266;52.150;4.768;2023-02-28T08:22:12;4.38;;;4.00;;
16314;SDS011;8266;52.150;4.768;2023-02-28T08:24:39;3.85;;;3.50;;
16314;SDS011;8266;52.150;4.768;2023-02-28T08:27:09;3.40;;;3.10;;
16314;SDS011;8266;52.150;4.768;2023-02-28T08:29:36;3.50;;;3.20;;
16314;SDS011;8266;52.150;4.768;2023-02-28T08:32:04;3.22;;;2.72;;
16314;SDS011;8266;52.150;4.768;2023-02-28T08:34:31;3.15;;;2.80;;
16314;SDS011;8266;52.150;4.768;2023-02-28T08:36:59;3.17;;;2.90;;
16314;SDS011;8266;52.150;4.768;2023-02-28T08:39:26;3.22;;;3.00;;
16314;SDS011;8266;52.150;4.768;2023-02-28T08:41:53;3.17;;;2.85;;
16314;SDS011;8266;52.150;4.768;2023-02-28T08:44:21;3.42;;;3.13;;
16314;SDS011;8266;52.150;4.768;2023-02-28T08:46:48;3.55;;;3.25;;
16314;SDS011;8266;52.150;4.768;2023-02-28T08:49:16;2.95;;;2.75;;
16314;SDS011;8266;52.150;4.768;2023-02-28T08:51:43;3.20;;;2.85;;
16314;SDS011;8266;52.150;4.768;2023-02-28T08:54:10;3.70;;;3.22;;
16314;SDS011;8266;52.150;4.768;2023-02-28T08:56:38;3.92;;;3.25;;
16314;SDS011;8266;52.150;4.768;2023-02-28T08:59:05;3.40;;;3.10;;
16314;SDS011;8266;52.150;4.768;2023-02-28T09:01:33;4.07;;;3.50;;
16314;SDS011;8266;52.150;4.768;2023-02-28T09:04:01;3.47;;;3.17;;
16314;SDS011;8266;52.150;4.768;2023-02-28T09:06:29;4.22;;;3.78;;
16314;SDS011;8266;52.150;4.768;2023-02-28T09:08:56;3.55;;;3.25;;
16314;SDS011;8266;52.150;4.768;2023-02-28T09:11:24;4.00;;;3.60;;
16314;SDS011;8266;52.150;4.768;2023-02-28T09:13:51;3.78;;;3.42;;
16314;SDS011;8266;52.150;4.768;2023-02-28T09:16:20;4.03;;;3.70;;
16314;SDS011;8266;52.150;4.768;2023-02-28T09:18:49;4.05;;;3.65;;
16314;SDS011;8266;52.150;4.768;2023-02-28T09:21:17;4.30;;;3.90;;
16314;SDS011;8266;52.150;4.768;2023-02-28T09:23:46;5.50;;;3.50;;
16314;SDS011;8266;52.150;4.768;2023-02-28T09:26:15;4.03;;;3.63;;
16314;SDS011;8266;52.150;4.768;2023-02-28T09:28:42;5.00;;;4.20;;
16314;SDS011;8266;52.150;4.768;2023-02-28T09:31:11;4.70;;;3.85;;
16314;SDS011;8266;52.150;4.768;2023-02-28T09:33:40;4.00;;;3.60;;
16314;SDS011;8266;52.150;4.768;2023-02-28T09:36:08;4.07;;;3.72;;
16314;SDS011;8266;52.150;4.768;2023-02-28T09:38:35;5.97;;;4.68;;
16314;SDS011;8266;52.150;4.768;2023-02-28T09:41:03;8.27;;;6.05;;
16314;SDS011;8266;52.150;4.768;2023-02-28T09:43:38;6.50;;;5.90;;
16314;SDS011;8266;52.150;4.768;2023-02-28T09:46:12;4.65;;;4.25;;
16314;SDS011;8266;52.150;4.768;2023-02-28T09:48:47;5.00;;;4.50;;
16314;SDS011;8266;52.150;4.768;2023-02-28T09:51:23;4.32;;;3.75;;
16314;SDS011;8266;52.150;4.768;2023-02-28T09:53:56;6.00;;;4.03;;
16314;SDS011;8266;52.150;4.768;2023-02-28T09:56:24;4.07;;;3.65;;
16314;SDS011;8266;52.150;4.768;2023-02-28T09:58:57;4.22;;;3.40;;
16314;SDS011;8266;52.150;4.768;2023-02-28T10:01:30;4.20;;;3.60;;
16314;SDS011;8266;52.150;4.768;2023-02-28T10:04:03;3.88;;;3.38;;
16314;SDS011;8266;52.150;4.768;2023-02-28T10:06:39;3.95;;;3.65;;
16314;SDS011;8266;52.150;4.768;2023-02-28T10:09:13;4.00;;;3.45;;
16314;SDS011;8266;52.150;4.768;2023-02-28T10:11:45;3.90;;;3.58;;
16314;SDS011;8266;52.150;4.768;2023-02-28T10:14:15;6.32;;;4.03;;
16314;SDS011;8266;52.150;4.768;2023-02-28T10:16:45;4.22;;;3.58;;
16314;SDS011;8266;52.150;4.768;2023-02-28T10:19:21;4.80;;;3.30;;
16314;SDS011;8266;52.150;4.768;2023-02-28T10:21:55;4.20;;;3.50;;
16314;SDS011;8266;52.150;4.768;2023-02-28T10:24:26;4.50;;;3.72;;
16314;SDS011;8266;52.150;4.768;2023-02-28T10:27:01;3.67;;;3.38;;
16314;SDS011;8266;52.150;4.768;2023-02-28T10:29:40;6.18;;;4.38;;
16314;SDS011;8266;52.150;4.768;2023-02-28T10:32:11;5.85;;;4.15;;
16314;SDS011;8266;52.150;4.768;2023-02-28T10:34:40;5.07;;;4.30;;
16314;SDS011;8266;52.150;4.768;2023-02-28T10:37:09;3.55;;;3.22;;
16314;SDS011;8266;52.150;4.768;2023-02-28T10:39:38;4.00;;;2.80;;
16314;SDS011;8266;52.150;4.768;2023-02-28T10:42:18;2.75;;;2.40;;
16314;SDS011;8266;52.150;4.768;2023-02-28T10:44:47;5.63;;;2.47;;
16314;SDS011;8266;52.150;4.768;2023-02-28T10:47:14;5.07;;;2.13;;
16314;SDS011;8266;52.150;4.768;2023-02-28T10:49:46;2.63;;;2.28;;
16314;SDS011;8266;52.150;4.768;2023-02-28T10:52:17;2.67;;;2.17;;
16314;SDS011;8266;52.150;4.768;2023-02-28T10:55:15;2.45;;;2.10;;
16314;SDS011;8266;52.150;4.768;2023-02-28T10:57:47;4.25;;;2.72;;
16314;SDS011;8266;52.150;4.768;2023-02-28T11:00:15;3.28;;;2.40;;
16314;SDS011;8266;52.150;4.768;2023-02-28T11:02:43;4.13;;;3.58;;
16314;SDS011;8266;52.150;4.768;2023-02-28T11:05:28;3.13;;;2.83;;
16314;SDS011;8266;52.150;4.768;2023-02-28T11:07:59;2.58;;;2.38;;
16314;SDS011;8266;52.150;4.768;2023-02-28T11:10:32;2.33;;;2.08;;
16314;SDS011;8266;52.150;4.768;2023-02-28T11:12:59;2.72;;;2.33;;
16314;SDS011;8266;52.150;4.768;2023-02-28T11:15:29;3.30;;;2.30;;
16314;SDS011;8266;52.150;4.768;2023-02-28T11:17:58;4.18;;;3.40;;
16314;SDS011;8266;52.150;4.768;2023-02-28T11:20:28;3.67;;;2.28;;
16314;SDS011;8266;52.150;4.768;2023-02-28T11:23:00;2.17;;;1.98;;
16314;SDS011;8266;52.150;4.768;2023-02-28T11:25:30;2.00;;;1.60;;
16314;SDS011;8266;52.150;4.768;2023-02-28T11:28:00;3.83;;;1.83;;
16314;SDS011;8266;52.150;4.768;2023-02-28T11:30:32;5.03;;;3.38;;
16314;SDS011;8266;52.150;4.768;2023-02-28T11:33:18;3.38;;;2.75;;
16314;SDS011;8266;52.150;4.768;2023-02-28T11:35:48;5.78;;;3.72;;
16314;SDS011;8266;52.150;4.768;2023-02-28T11:38:18;3.13;;;2.60;;
16314;SDS011;8266;52.150;4.768;2023-02-28T11:40:47;2.25;;;1.85;;
16314;SDS011;8266;52.150;4.768;2023-02-28T11:43:22;2.90;;;2.13;;
16314;SDS011;8266;52.150;4.768;2023-02-28T11:46:05;3.00;;;2.20;;
16314;SDS011;8266;52.150;4.768;2023-02-28T11:48:44;6.53;;;3.40;;
16314;SDS011;8266;52.150;4.768;2023-02-28T11:51:21;2.08;;;1.80;;
16314;SDS011;8266;52.150;4.768;2023-02-28T11:56:48;1.90;;;1.70;;
16314;SDS011;8266;52.150;4.768;2023-02-28T11:59:24;2.53;;;1.60;;
16314;SDS011;8266;52.150;4.768;2023-02-28T12:02:20;1.75;;;1.65;;
16314;SDS011;8266;52.150;4.768;2023-02-28T12:04:52;1.98;;;1.80;;
16314;SDS011;8266;52.150;4.768;2023-02-28T12:07:36;2.25;;;1.45;;
16314;SDS011;8266;52.150;4.768;2023-02-28T12:10:12;1.30;;;1.20;;
16314;SDS011;8266;52.150;4.768;2023-02-28T12:12:48;3.65;;;2.40;;
16314;SDS011;8266;52.150;4.768;2023-02-28T12:15:39;2.15;;;1.90;;
16314;SDS011;8266;52.150;4.768;2023-02-28T12:18:26;2.58;;;1.95;;
16314;SDS011;8266;52.150;4.768;2023-02-28T12:21:15;1.60;;;1.50;;
16314;SDS011;8266;52.150;4.768;2023-02-28T12:23:53;2.20;;;2.00;;
16314;SDS011;8266;52.150;4.768;2023-02-28T12:26:33;2.22;;;2.00;;
16314;SDS011;8266;52.150;4.768;2023-02-28T12:29:04;1.77;;;1.58;;
16314;SDS011;8266;52.150;4.768;2023-02-28T12:31:40;1.90;;;1.80;;
16314;SDS011;8266;52.150;4.768;2023-02-28T12:34:13;2.17;;;1.92;;
16314;SDS011;8266;52.150;4.768;2023-02-28T12:36:45;2.22;;;2.03;;
16314;SDS011;8266;52.150;4.768;2023-02-28T12:39:15;2.58;;;2.25;;
16314;SDS011;8266;52.150;4.768;2023-02-28T12:41:48;1.60;;;1.50;;
16314;SDS011;8266;52.150;4.768;2023-02-28T12:44:19;2.08;;;1.88;;
16314;SDS011;8266;52.150;4.768;2023-02-28T12:46:53;1.90;;;1.80;;
16314;SDS011;8266;52.150;4.768;2023-02-28T12:49:25;2.70;;;1.90;;
16314;SDS011;8266;52.150;4.768;2023-02-28T12:51:57;2.13;;;1.80;;
16314;SDS011;8266;52.150;4.768;2023-02-28T12:54:28;2.58;;;2.38;;
16314;SDS011;8266;52.150;4.768;2023-02-28T12:57:02;2.08;;;1.98;;
16314;SDS011;8266;52.150;4.768;2023-02-28T12:59:36;2.47;;;1.98;;
16314;SDS011;8266;52.150;4.768;2023-02-28T13:02:19;2.95;;;2.45;;
16314;SDS011;8266;52.150;4.768;2023-02-28T13:05:10;1.85;;;1.75;;
16314;SDS011;8266;52.150;4.768;2023-02-28T13:11:25;2.05;;;1.77;;
16314;SDS011;8266;52.150;4.768;2023-02-28T13:14:00;2.10;;;1.95;;
16314;SDS011;8266;52.150;4.768;2023-02-28T13:16:42;3.90;;;2.05;;
16314;SDS011;8266;52.150;4.768;2023-02-28T13:19:23;2.22;;;2.03;;
16314;SDS011;8266;52.150;4.768;2023-02-28T13:21:52;2.30;;;2.00;;
16314;SDS011;8266;52.150;4.768;2023-02-28T13:24:36;2.13;;;1.90;;
16314;SDS011;8266;52.150;4.768;2023-02-28T13:36:08;1.90;;;1.80;;
16314;SDS011;8266;52.150;4.768;2023-02-28T13:38:38;1.92;;;1.80;;
16314;SDS011;8266;52.150;4.768;2023-02-28T13:44:10;2.10;;;1.85;;
16314;SDS011;8266;52.150;4.768;2023-02-28T13:49:42;2.10;;;1.90;;
16314;SDS011;8266;52.150;4.768;2023-02-28T13:52:11;3.50;;;1.73;;
16314;SDS011;8266;52.150;4.768;2023-02-28T13:54:48;1.95;;;1.80;;
16314;SDS011;8266;52.150;4.768;2023-02-28T13:57:23;3.15;;;1.60;;
16314;SDS011;8266;52.150;4.768;2023-02-28T14:00:01;2.25;;;1.60;;
16314;SDS011;8266;52.150;4.768;2023-02-28T14:02:53;1.63;;;1.52;;
16314;SDS011;8266;52.150;4.768;2023-02-28T14:05:35;3.13;;;1.60;;
16314;SDS011;8266;52.150;4.768;2023-02-28T14:08:04;2.03;;;1.83;;
16314;SDS011;8266;52.150;4.768;2023-02-28T14:10:41;2.60;;;2.40;;
16314;SDS011;8266;52.150;4.768;2023-02-28T14:13:12;2.00;;;1.63;;
16314;SDS011;8266;52.150;4.768;2023-02-28T14:16:02;1.92;;;1.70;;
16314;SDS011;8266;52.150;4.768;2023-02-28T14:18:31;2.28;;;2.03;;
16314;SDS011;8266;52.150;4.768;2023-02-28T14:21:09;3.08;;;1.85;;
16314;SDS011;8266;52.150;4.768;2023-02-28T14:23:54;1.67;;;1.58;;
16314;SDS011;8266;52.150;4.768;2023-02-28T14:27:05;1.92;;;1.55;;
16314;SDS011;8266;52.150;4.768;2023-02-28T14:30:01;1.75;;;1.50;;
16314;SDS011;8266;52.150;4.768;2023-02-28T14:32:41;1.40;;;1.30;;
16314;SDS011;8266;52.150;4.768;2023-02-28T14:35:17;1.40;;;1.30;;
16314;SDS011;8266;52.150;4.768;2023-02-28T14:37:55;3.67;;;1.50;;
16314;SDS011;8266;52.150;4.768;2023-02-28T14:40:25;2.35;;;1.90;;
16314;SDS011;8266;52.150;4.768;2023-02-28T14:42:55;1.70;;;1.60;;
16314;SDS011;8266;52.150;4.768;2023-02-28T14:45:24;2.38;;;2.13;;
16314;SDS011;8266;52.150;4.768;2023-02-28T14:47:55;2.35;;;1.95;;
16314;SDS011;8266;52.150;4.768;2023-02-28T14:50:34;1.80;;;1.70;;
16314;SDS011;8266;52.150;4.768;2023-02-28T14:53:03;2.35;;;1.67;;
16314;SDS011;8266;52.150;4.768;2023-02-28T14:55:34;1.98;;;1.75;;
16314;SDS011;8266;52.150;4.768;2023-02-28T14:58:03;3.00;;;2.00;;
16314;SDS011;8266;52.150;4.768;2023-02-28T15:00:32;2.25;;;2.00;;
16314;SDS011;8266;52.150;4.768;2023-02-28T15:03:01;2.13;;;1.92;;
16314;SDS011;8266;52.150;4.768;2023-02-28T15:05:50;3.05;;;2.25;;
16314;SDS011;8266;52.150;4.768;2023-02-28T15:08:20;2.67;;;2.00;;
16314;SDS011;8266;52.150;4.768;2023-02-28T15:10:50;3.00;;;2.20;;
16314;SDS011;8266;52.150;4.768;2023-02-28T15:13:20;2.47;;;2.15;;
16314;SDS011;8266;52.150;4.768;2023-02-28T15:15:49;2.72;;;2.40;;
16314;SDS011;8266;52.150;4.768;2023-02-28T15:18:25;2.78;;;2.53;;
16314;SDS011;8266;52.150;4.768;2023-02-28T15:20:59;3.30;;;2.17;;
16314;SDS011;8266;52.150;4.768;2023-02-28T15:23:32;2.25;;;2.05;;
16314;SDS011;8266;52.150;4.768;2023-02-28T15:26:01;3.28;;;2.40;;
16314;SDS011;8266;52.150;4.768;2023-02-28T15:28:29;2.63;;;2.22;;
16314;SDS011;8266;52.150;4.768;2023-02-28T15:30:58;2.40;;;2.20;;
16314;SDS011;8266;52.150;4.768;2023-02-28T15:33:27;3.47;;;2.17;;
16314;SDS011;8266;52.150;4.768;2023-02-28T15:36:05;2.78;;;2.22;;
16314;SDS011;8266;52.150;4.768;2023-02-28T15:38:38;2.55;;;2.28;;
16314;SDS011;8266;52.150;4.768;2023-02-28T15:41:21;2.53;;;2.33;;
16314;SDS011;8266;52.150;4.768;2023-02-28T15:43:57;2.40;;;2.20;;
16314;SDS011;8266;52.150;4.768;2023-02-28T15:46:43;2.58;;;2.30;;
16314;SDS011;8266;52.150;4.768;2023-02-28T15:49:19;3.75;;;2.72;;